Time;durP1;ratioP1;P1;durP2;ratioP2;P2;SDS_P1;SDS_P2;PMS_P1;PMS_P2;Temp;Humidity;BMP_temperature;BMP_pressure;BME280_temperature;BME280_humidity;BME280_pressure;Samples;Min_cycle;Max_cycle;Signal;HPM_P1;HPM_P2
2021/04/13 00:00:24;;;;;;;18.92;10.43;;;3.90;99.90;;;;;;5071232;28;20083;-66
2021/04/13 00:02:52;;;;;;;19.02;10.07;;;3.90;99.90;;;;;;5067672;28;20044;-66
2021/04/13 00:05:35;;;;;;;16.23;9.88;;;3.80;99.90;;;;;;5068008;28;20025;-65
2021/04/13 00:08:07;;;;;;;17.65;9.75;;;3.80;99.90;;;;;;5065447;28;20043;-66
2021/04/13 00:10:56;;;;;;;16.48;9.80;;;3.80;99.90;;;;;;5074094;28;20107;-65
2021/04/13 00:13:22;;;;;;;17.33;9.43;;;3.80;99.90;;;;;;5066781;28;20089;-66
2021/04/13 00:15:54;;;;;;;16.45;9.55;;;3.70;99.90;;;;;;5067130;28;20028;-65
2021/04/13 00:18:25;;;;;;;15.13;9.32;;;3.70;99.90;;;;;;5062016;28;20503;-65
2021/04/13 00:21:03;;;;;;;18.85;9.63;;;3.70;99.90;;;;;;5066983;28;20077;-66
2021/04/13 00:23:29;;;;;;;16.58;9.55;;;3.80;99.90;;;;;;5071444;28;20021;-67
2021/04/13 00:25:59;;;;;;;18.85;9.48;;;3.70;99.90;;;;;;5069732;28;20028;-67
2021/04/13 00:28:28;;;;;;;15.77;8.68;;;3.70;99.90;;;;;;5064417;28;20505;-67
2021/04/13 00:31:03;;;;;;;19.02;10.18;;;3.70;99.90;;;;;;5073785;28;20115;-66
2021/04/13 00:33:35;;;;;;;15.77;9.35;;;3.60;99.90;;;;;;5071798;28;20021;-66
2021/04/13 00:36:10;;;;;;;14.05;8.98;;;3.60;99.90;;;;;;5067583;28;20421;-67
2021/04/13 00:38:45;;;;;;;17.73;9.35;;;3.60;99.90;;;;;;5067056;28;20033;-67
2021/04/13 00:41:17;;;;;;;12.35;8.88;;;3.60;99.90;;;;;;5081139;28;20537;-67
2021/04/13 00:43:51;;;;;;;14.27;10.02;;;3.50;99.90;;;;;;5071254;28;20509;-66
2021/04/13 00:46:23;;;;;;;15.15;9.63;;;3.60;99.90;;;;;;5074389;28;20020;-67
2021/04/13 00:48:50;;;;;;;13.73;8.98;;;3.60;99.90;;;;;;5081002;28;20496;-67
2021/04/13 00:51:27;;;;;;;18.85;8.82;;;3.60;99.90;;;;;;5075541;28;20635;-67
2021/04/13 00:53:58;;;;;;;20.35;9.30;;;3.60;99.90;;;;;;5063473;28;20123;-67
2021/04/13 00:56:26;;;;;;;18.43;9.13;;;3.50;99.90;;;;;;5079265;28;20024;-67
2021/04/13 00:59:06;;;;;;;17.08;9.48;;;3.50;99.90;;;;;;5071610;28;20115;-67
2021/04/13 01:01:36;;;;;;;13.32;8.30;;;3.50;99.90;;;;;;5064689;28;20020;-67
2021/04/13 01:04:17;;;;;;;13.38;8.18;;;3.50;99.90;;;;;;5071679;28;20533;-67
2021/04/13 01:06:43;;;;;;;14.82;8.93;;;3.40;99.90;;;;;;5064523;28;20032;-67
2021/04/13 01:09:17;;;;;;;14.82;8.68;;;3.40;99.90;;;;;;5071765;28;20534;-67
2021/04/13 01:11:47;;;;;;;16.77;10.15;;;3.30;99.90;;;;;;5070388;28;20028;-67
2021/04/13 01:14:13;;;;;;;13.57;8.35;;;3.30;99.90;;;;;;5067561;28;20111;-67
2021/04/13 01:16:58;;;;;;;14.55;9.45;;;3.40;99.90;;;;;;5073678;28;20381;-67
2021/04/13 01:19:27;;;;;;;15.35;9.82;;;3.40;99.90;;;;;;5069533;28;20066;-67
2021/04/13 01:22:26;;;;;;;15.40;9.45;;;3.30;99.90;;;;;;5065294;28;20036;-65
2021/04/13 01:25:06;;;;;;;16.55;9.85;;;3.30;99.90;;;;;;5069068;28;20021;-66
2021/04/13 01:27:32;;;;;;;20.00;9.48;;;3.20;99.90;;;;;;5072980;28;20033;-66
2021/04/13 01:30:02;;;;;;;16.23;9.80;;;3.30;99.90;;;;;;5072852;28;20040;-65
2021/04/13 01:32:28;;;;;;;14.32;9.48;;;3.20;99.90;;;;;;5070034;28;20414;-66
2021/04/13 01:35:04;;;;;;;15.90;9.45;;;3.20;99.90;;;;;;5066685;28;20170;-66
2021/04/13 01:38:00;;;;;;;15.85;10.05;;;3.20;99.90;;;;;;5068491;28;20073;-65
2021/04/13 01:40:39;;;;;;;16.55;9.85;;;3.20;99.90;;;;;;5068571;28;20024;-66
2021/04/13 01:43:05;;;;;;;19.08;10.50;;;3.30;99.90;;;;;;5066562;28;20024;-65
2021/04/13 01:45:32;;;;;;;17.40;10.85;;;3.20;99.90;;;;;;5065296;28;20068;-67
2021/04/13 01:48:00;;;;;;;18.75;10.77;;;3.20;99.90;;;;;;5069097;28;20469;-66
2021/04/13 01:50:39;;;;;;;19.00;11.57;;;3.20;99.90;;;;;;5067819;28;20385;-68
2021/04/13 01:53:11;;;;;;;17.88;11.10;;;3.20;99.90;;;;;;5067687;28;20036;-67
2021/04/13 01:55:46;;;;;;;19.98;10.15;;;3.20;99.90;;;;;;5076474;28;20057;-65
2021/04/13 01:58:21;;;;;;;22.15;10.52;;;3.20;99.90;;;;;;5070486;28;20028;-66
2021/04/13 02:01:03;;;;;;;18.52;10.50;;;3.20;99.90;;;;;;5070559;28;20494;-66
2021/04/13 02:03:42;;;;;;;18.00;10.98;;;3.20;99.90;;;;;;5069310;28;20024;-65
2021/04/13 02:06:22;;;;;;;21.45;11.25;;;3.20;99.90;;;;;;5065377;28;20032;-66
2021/04/13 02:08:52;;;;;;;17.85;10.48;;;3.20;99.90;;;;;;5068743;28;20124;-67
2021/04/13 02:11:24;;;;;;;18.77;11.38;;;3.20;99.90;;;;;;5073530;28;20028;-66
2021/04/13 02:13:58;;;;;;;20.95;11.82;;;3.20;99.90;;;;;;5075147;28;20024;-65
2021/04/13 02:16:30;;;;;;;21.08;12.35;;;3.20;99.90;;;;;;5072852;28;20499;-65
2021/04/13 02:18:57;;;;;;;22.03;12.03;;;3.20;99.90;;;;;;5078108;28;20028;-67
2021/04/13 02:21:30;;;;;;;19.05;11.23;;;3.20;99.90;;;;;;5068969;28;20298;-65
2021/04/13 02:24:08;;;;;;;21.83;11.57;;;3.20;99.90;;;;;;5072813;28;20081;-67
2021/04/13 02:26:43;;;;;;;20.85;11.05;;;3.10;99.90;;;;;;5076606;28;20054;-66
2021/04/13 02:29:11;;;;;;;21.48;11.70;;;3.10;99.90;;;;;;5069821;28;20048;-66
2021/04/13 02:31:37;;;;;;;23.10;12.27;;;3.00;99.90;;;;;;5073203;28;20039;-66
2021/04/13 02:34:28;;;;;;;20.65;11.63;;;3.00;99.90;;;;;;5071226;28;20033;-65
2021/04/13 02:36:57;;;;;;;21.48;11.65;;;3.00;99.90;;;;;;5067629;28;20123;-66
2021/04/13 02:39:25;;;;;;;23.63;12.63;;;3.10;99.90;;;;;;5073855;28;20019;-65
2021/04/13 02:42:05;;;;;;;24.83;13.60;;;3.00;99.90;;;;;;5072798;28;20165;-64
2021/04/13 02:44:31;;;;;;;22.42;11.18;;;3.00;99.90;;;;;;5065457;28;20017;-64
2021/04/13 02:47:01;;;;;;;26.25;13.00;;;3.10;99.90;;;;;;5068787;28;20043;-65
2021/04/13 02:49:29;;;;;;;20.77;12.27;;;3.10;99.90;;;;;;5073891;28;20388;-66
2021/04/13 02:52:03;;;;;;;21.17;12.63;;;3.00;99.90;;;;;;5071463;28;20029;-65
2021/04/13 02:54:51;;;;;;;22.15;12.80;;;3.00;99.90;;;;;;5072150;28;20037;-66
2021/04/13 02:57:28;;;;;;;24.13;12.30;;;3.00;99.90;;;;;;5067175;28;20488;-64
2021/04/13 03:00:01;;;;;;;19.60;11.98;;;3.10;99.90;;;;;;5073626;28;20405;-64
2021/04/13 03:02:46;;;;;;;20.83;13.10;;;3.10;99.90;;;;;;5071626;28;20020;-66
2021/04/13 03:05:19;;;;;;;25.90;12.55;;;3.00;99.90;;;;;;5063873;28;20024;-66
2021/04/13 03:07:45;;;;;;;25.48;12.32;;;3.00;99.90;;;;;;5075740;28;20119;-65
2021/04/13 03:10:15;;;;;;;29.40;13.23;;;3.00;99.90;;;;;;5074065;28;20032;-64
2021/04/13 03:12:44;;;;;;;22.30;12.32;;;2.90;99.90;;;;;;5065372;28;20496;-65
2021/04/13 03:15:22;;;;;;;21.88;13.05;;;3.00;99.90;;;;;;5068521;28;20029;-64
2021/04/13 03:17:54;;;;;;;18.75;11.65;;;2.90;99.90;;;;;;5073240;28;20036;-66
2021/04/13 03:20:25;;;;;;;23.17;12.57;;;3.00;99.90;;;;;;5072370;28;20066;-65
2021/04/13 03:22:55;;;;;;;23.63;12.82;;;2.90;99.90;;;;;;5066255;28;20024;-65
2021/04/13 03:25:23;;;;;;;21.70;12.43;;;2.90;99.90;;;;;;5073336;28;20043;-67
2021/04/13 03:27:50;;;;;;;23.33;12.90;;;2.90;99.90;;;;;;5070459;28;20024;-66
2021/04/13 03:30:23;;;;;;;19.27;11.95;;;2.90;99.90;;;;;;5068944;28;20393;-64
2021/04/13 03:32:58;;;;;;;21.98;12.23;;;2.90;99.90;;;;;;5075449;28;20028;-67
2021/04/13 03:35:26;;;;;;;19.67;12.40;;;2.80;99.90;;;;;;5077408;28;20113;-65
2021/04/13 03:37:56;;;;;;;21.30;12.38;;;2.90;99.90;;;;;;5078852;28;20020;-65
2021/04/13 03:40:26;;;;;;;28.17;12.88;;;2.90;99.90;;;;;;5071870;28;20025;-64
2021/04/13 03:43:00;;;;;;;22.27;12.20;;;2.90;99.90;;;;;;5068653;28;20036;-64
2021/04/13 03:45:27;;;;;;;26.63;13.15;;;2.80;99.90;;;;;;5066814;28;20095;-64
2021/04/13 03:47:53;;;;;;;19.25;11.40;;;2.80;99.90;;;;;;5071193;28;20067;-65
2021/04/13 03:50:27;;;;;;;20.00;11.88;;;2.80;99.90;;;;;;5068178;28;20078;-64
2021/04/13 03:53:33;;;;;;;23.02;13.07;;;2.80;99.90;;;;;;5071951;28;20100;-64
2021/04/13 03:56:14;;;;;;;22.52;13.02;;;2.80;99.90;;;;;;5066338;28;20135;-65
2021/04/13 03:58:42;;;;;;;19.33;12.05;;;2.80;99.90;;;;;;5079125;28;20060;-66
2021/04/13 04:01:11;;;;;;;19.58;11.95;;;2.80;99.90;;;;;;5060519;28;20473;-64
2021/04/13 04:03:41;;;;;;;25.55;12.75;;;2.80;99.90;;;;;;5073626;28;20027;-65
2021/04/13 04:06:06;;;;;;;23.48;11.50;;;2.80;99.90;;;;;;5065826;28;20070;-64
2021/04/13 04:08:48;;;;;;;19.55;12.52;;;2.80;99.90;;;;;;5068655;28;20020;-64
2021/04/13 04:11:15;;;;;;;18.88;11.27;;;2.70;99.90;;;;;;5068129;28;20073;-64
2021/04/13 04:13:49;;;;;;;23.20;12.10;;;2.80;99.90;;;;;;5071776;28;20079;-64
2021/04/13 04:16:20;;;;;;;28.08;11.85;;;2.80;99.90;;;;;;5068403;28;20028;-65
2021/04/13 04:18:50;;;;;;;21.48;11.80;;;2.80;99.90;;;;;;5067402;28;20028;-64
2021/04/13 04:21:39;;;;;;;20.25;11.82;;;2.70;99.90;;;;;;5068680;28;20027;-64
2021/04/13 04:24:19;;;;;;;24.02;12.60;;;2.70;99.90;;;;;;5068314;28;20033;-64
2021/04/13 04:26:54;;;;;;;23.63;13.18;;;2.70;99.90;;;;;;5070616;28;20032;-64
2021/04/13 04:29:29;;;;;;;19.25;12.50;;;2.60;99.90;;;;;;5068555;28;20062;-64
2021/04/13 04:32:08;;;;;;;22.20;12.45;;;2.60;99.90;;;;;;5072172;28;20021;-65
2021/04/13 04:34:34;;;;;;;24.17;11.80;;;2.60;99.90;;;;;;5070900;28;20067;-64
2021/04/13 04:37:00;;;;;;;19.98;11.52;;;2.60;99.90;;;;;;5063696;28;20071;-64
2021/04/13 04:39:36;;;;;;;25.08;12.10;;;2.60;99.90;;;;;;5066356;28;20389;-64
2021/04/13 04:42:30;;;;;;;21.00;11.63;;;2.60;99.90;;;;;;5068344;28;20063;-64
2021/04/13 04:45:17;;;;;;;24.63;13.48;;;2.60;99.90;;;;;;5067141;28;20032;-64
2021/04/13 04:47:45;;;;;;;22.60;13.40;;;2.60;99.90;;;;;;5062929;28;20032;-64
2021/04/13 04:50:15;;;;;;;25.33;13.43;;;2.50;99.90;;;;;;5067188;28;20398;-64
2021/04/13 04:52:41;;;;;;;26.05;14.32;;;2.50;99.90;;;;;;5070961;28;20029;-65
2021/04/13 04:55:07;;;;;;;24.23;11.90;;;2.50;99.90;;;;;;5072470;28;20082;-64
2021/04/13 04:57:33;;;;;;;25.20;13.38;;;2.50;99.90;;;;;;5063229;28;20032;-64
2021/04/13 04:59:59;;;;;;;23.85;13.30;;;2.50;99.90;;;;;;5070194;28;20115;-64
2021/04/13 05:02:25;;;;;;;26.67;14.60;;;2.60;99.90;;;;;;5072896;28;20020;-64
2021/04/13 05:04:51;;;;;;;26.60;13.18;;;2.50;99.90;;;;;;5068182;28;20028;-68
2021/04/13 05:07:17;;;;;;;22.70;14.32;;;2.60;99.90;;;;;;5066226;28;20032;-65
2021/04/13 05:09:43;;;;;;;26.25;14.82;;;2.60;99.90;;;;;;5067926;28;20044;-64
2021/04/13 05:12:09;;;;;;;27.15;13.30;;;2.60;99.90;;;;;;5071595;28;20035;-64
2021/04/13 05:14:35;;;;;;;26.05;13.32;;;2.60;99.90;;;;;;5072916;28;20024;-64
2021/04/13 05:17:01;;;;;;;25.00;14.30;;;2.60;99.90;;;;;;5066206;28;20035;-64
2021/04/13 05:19:26;;;;;;;24.60;14.25;;;2.60;99.90;;;;;;5071808;28;20029;-64
2021/04/13 05:21:52;;;;;;;26.23;14.07;;;2.60;99.90;;;;;;5062167;28;20056;-64
2021/04/13 05:24:18;;;;;;;26.30;13.30;;;2.60;99.90;;;;;;5074673;28;20074;-64
2021/04/13 05:26:43;;;;;;;23.33;13.20;;;2.60;99.90;;;;;;5073891;28;20040;-65
2021/04/13 05:29:10;;;;;;;28.90;15.32;;;2.60;99.90;;;;;;5070944;28;20116;-64
2021/04/13 05:31:39;;;;;;;29.00;13.60;;;2.60;99.90;;;;;;5068405;28;20017;-64
2021/04/13 05:34:04;;;;;;;25.98;14.30;;;2.60;99.90;;;;;;5073893;28;20063;-64
2021/04/13 05:36:31;;;;;;;30.38;14.23;;;2.70;99.90;;;;;;5071925;28;20068;-64
2021/04/13 05:38:58;;;;;;;27.60;15.15;;;2.60;99.90;;;;;;5063099;28;20458;-65
2021/04/13 05:41:24;;;;;;;27.27;15.68;;;2.70;99.90;;;;;;5071800;28;20062;-64
2021/04/13 05:43:49;;;;;;;26.60;15.68;;;2.70;99.90;;;;;;5067491;28;20025;-65
2021/04/13 05:46:19;;;;;;;30.25;16.90;;;2.70;99.90;;;;;;5071394;28;20064;-65
2021/04/13 05:48:45;;;;;;;30.23;17.50;;;2.70;99.90;;;;;;5074563;28;20037;-65
2021/04/13 05:51:11;;;;;;;28.60;16.90;;;2.80;99.90;;;;;;5080283;28;20089;-65
2021/04/13 05:53:37;;;;;;;30.92;16.15;;;2.80;99.90;;;;;;5074093;28;20469;-64
2021/04/13 05:56:03;;;;;;;31.33;17.13;;;2.90;99.90;;;;;;5072176;28;20064;-65
2021/04/13 05:58:48;;;;;;;29.33;16.80;;;3.00;99.90;;;;;;5071435;28;20120;-64
2021/04/13 06:01:14;;;;;;;29.33;16.45;;;3.10;99.90;;;;;;5073653;28;20029;-65
2021/04/13 06:03:43;;;;;;;31.77;16.85;;;3.10;99.90;;;;;;5072874;28;20035;-65
2021/04/13 06:06:09;;;;;;;33.47;16.30;;;3.20;99.90;;;;;;5071788;28;20099;-65
2021/04/13 06:08:35;;;;;;;25.65;16.38;;;3.20;99.90;;;;;;5069266;28;20035;-65
2021/04/13 06:11:00;;;;;;;27.70;16.90;;;3.20;99.90;;;;;;5073667;28;20025;-64
2021/04/13 06:13:27;;;;;;;28.05;16.60;;;3.30;99.90;;;;;;5074002;28;20362;-65
2021/04/13 06:15:54;;;;;;;32.85;16.73;;;3.40;99.90;;;;;;5073311;28;20016;-65
2021/04/13 06:18:21;;;;;;;26.90;16.13;;;3.40;99.90;;;;;;5070522;28;20025;-65
2021/04/13 06:20:47;;;;;;;26.90;16.40;;;3.50;99.90;;;;;;5069752;28;20465;-65
2021/04/13 06:23:13;;;;;;;35.10;17.25;;;3.50;99.90;;;;;;5075088;28;20032;-66
2021/04/13 06:25:39;;;;;;;30.60;16.48;;;3.60;99.90;;;;;;5071416;28;20386;-66
2021/04/13 06:28:05;;;;;;;26.95;15.90;;;3.70;99.90;;;;;;5068389;28;20028;-66
2021/04/13 06:30:31;;;;;;;29.83;15.30;;;3.70;99.90;;;;;;5075209;28;20384;-66
2021/04/13 06:32:58;;;;;;;30.60;16.70;;;3.80;99.90;;;;;;5064671;28;20025;-66
2021/04/13 06:35:25;;;;;;;33.47;16.13;;;3.90;99.90;;;;;;5069336;28;20016;-65
2021/04/13 06:37:54;;;;;;;27.90;15.65;;;3.80;99.90;;;;;;5075497;28;20025;-66
2021/04/13 06:40:41;;;;;;;27.80;15.75;;;3.90;99.90;;;;;;5067821;28;20465;-66
2021/04/13 06:43:25;;;;;;;23.60;14.68;;;4.00;99.90;;;;;;5070229;28;20033;-66
2021/04/13 06:46:13;;;;;;;26.17;14.55;;;4.00;99.90;;;;;;5070134;28;20476;-66
2021/04/13 06:49:04;;;;;;;26.10;16.55;;;4.00;99.90;;;;;;5070067;28;20040;-66
2021/04/13 06:51:53;;;;;;;25.38;15.32;;;4.20;99.90;;;;;;5071844;28;20108;-66
2021/04/13 06:54:27;;;;;;;24.55;15.45;;;4.30;99.90;;;;;;5072264;28;20024;-65
2021/04/13 06:57:14;;;;;;;23.83;12.90;;;4.30;99.90;;;;;;5071281;28;20061;-66
2021/04/13 06:59:59;;;;;;;23.58;12.20;;;4.30;99.90;;;;;;5068393;28;20400;-66
2021/04/13 07:02:47;;;;;;;28.98;14.63;;;4.30;99.90;;;;;;5067256;28;20043;-66
2021/04/13 07:05:21;;;;;;;20.42;9.48;;;4.30;99.90;;;;;;5073481;28;20476;-65
2021/04/13 07:07:58;;;;;;;21.45;8.75;;;4.40;99.90;;;;;;5062426;28;20021;-66
2021/04/13 07:10:39;;;;;;;19.88;9.20;;;4.40;99.90;;;;;;5064516;28;20163;-66
2021/04/13 07:13:18;;;;;;;22.05;8.40;;;4.40;99.90;;;;;;5061470;28;20020;-65
2021/04/13 07:15:57;;;;;;;14.35;7.57;;;4.60;99.90;;;;;;5069151;28;20035;-66
2021/04/13 07:18:34;;;;;;;13.98;7.00;;;4.70;99.90;;;;;;5072522;28;20036;-66
2021/04/13 07:21:08;;;;;;;15.20;7.30;;;4.90;99.90;;;;;;5063564;28;20059;-66
2021/04/13 07:24:22;;;;;;;19.23;7.88;;;4.90;99.90;;;;;;5071234;28;20031;-66
2021/04/13 07:26:54;;;;;;;;;;;5.20;99.90;;;;;;5077316;28;20041;-66
2021/04/13 07:29:23;;;;;;;16.90;7.28;;;5.20;99.90;;;;;;5077470;28;19996;-66
2021/04/13 07:31:53;;;;;;;15.82;6.60;;;5.30;99.90;;;;;;5069274;28;20065;-66
2021/04/13 07:34:19;;;;;;;15.70;5.93;;;5.50;99.90;;;;;;5071804;28;20085;-66
2021/04/13 07:36:52;;;;;;;16.17;6.25;;;5.60;99.90;;;;;;5065666;28;20646;-67
2021/04/13 07:39:19;;;;;;;13.00;5.75;;;5.70;99.90;;;;;;5071682;28;20032;-66
2021/04/13 07:41:53;;;;;;;18.15;5.63;;;5.90;99.90;;;;;;5073622;28;20021;-66
2021/04/13 07:44:37;;;;;;;15.40;4.88;;;6.10;99.90;;;;;;5069202;28;20025;-66
2021/04/13 07:47:31;;;;;;;13.77;4.85;;;6.20;99.90;;;;;;5060076;28;20123;-66
2021/04/13 07:49:57;;;;;;;11.98;4.28;;;6.20;99.90;;;;;;5066235;28;20041;-67
2021/04/13 07:52:56;;;;;;;9.15;3.50;;;6.50;99.90;;;;;;5066253;28;20055;-67
2021/04/13 07:55:50;;;;;;;10.35;3.53;;;6.70;99.90;;;;;;5076153;28;20123;-67
2021/04/13 07:58:33;;;;;;;12.43;4.10;;;6.90;99.90;;;;;;5048027;28;20381;-67
2021/04/13 08:00:59;;;;;;;14.52;3.63;;;7.00;99.90;;;;;;5062942;28;20128;-68
2021/04/13 08:03:27;;;;;;;8.32;3.40;;;7.30;99.90;;;;;;5072001;28;20536;-67
2021/04/13 08:05:55;;;;;;;11.13;3.47;;;7.40;99.90;;;;;;5056886;28;20067;-68
2021/04/13 08:08:36;;;;;;;12.55;3.85;;;7.50;99.90;;;;;;5062929;28;20040;-67
2021/04/13 08:11:14;;;;;;;9.15;3.30;;;7.60;99.90;;;;;;5070453;28;20020;-67
2021/04/13 08:13:43;;;;;;;12.07;3.47;;;7.70;99.90;;;;;;5073871;28;20376;-66
2021/04/13 08:16:31;;;;;;;13.25;2.88;;;7.80;99.90;;;;;;5067625;28;20108;-67
2021/04/13 08:19:22;;;;;;;5.85;2.90;;;8.00;99.90;;;;;;5061351;28;20044;-67
2021/04/13 08:22:10;;;;;;;11.02;3.20;;;8.20;99.90;;;;;;5074502;28;20543;-67
2021/04/13 08:24:45;;;;;;;5.38;2.67;;;8.40;99.90;;;;;;5060813;28;20025;-70
2021/04/13 08:27:44;;;;;;;9.18;2.20;;;8.40;99.90;;;;;;5069476;28;20127;-67
2021/04/13 08:30:49;;;;;;;15.32;2.33;;;8.60;99.90;;;;;;5067582;28;20037;-67
2021/04/13 08:33:32;;;;;;;11.85;2.65;;;8.90;99.90;;;;;;5070004;28;20026;-67
2021/04/13 08:36:16;;;;;;;8.82;2.42;;;8.80;99.90;;;;;;5072563;28;20507;-67
2021/04/13 08:38:59;;;;;;;9.45;2.35;;;8.70;99.90;;;;;;5057902;28;20013;-66
2021/04/13 08:42:01;;;;;;;15.38;2.95;;;8.60;99.90;;;;;;5070528;28;20029;-67
2021/04/13 08:44:47;;;;;;;7.33;1.90;;;8.50;99.90;;;;;;5068892;28;20032;-67
2021/04/13 08:47:36;;;;;;;9.30;1.95;;;8.40;99.90;;;;;;5064407;28;20043;-67
2021/04/13 08:50:19;;;;;;;7.82;1.60;;;8.50;99.90;;;;;;5070193;28;20566;-67
2021/04/13 08:52:52;;;;;;;;;;;8.50;99.90;;;;;;5075730;28;20033;-67
2021/04/13 08:55:22;;;;;;;11.02;1.85;;;8.60;99.90;;;;;;5065032;28;20002;-67
2021/04/13 08:58:14;;;;;;;9.68;1.90;;;8.90;99.90;;;;;;5071421;28;20470;-67
2021/04/13 09:00:44;;;;;;;7.60;2.08;;;8.80;99.90;;;;;;5072336;28;20046;-67
2021/04/13 09:03:13;;;;;;;9.40;2.15;;;8.80;99.90;;;;;;5072410;28;20024;-67
2021/04/13 09:05:40;;;;;;;6.32;2.28;;;8.90;99.90;;;;;;5060632;28;20429;-67
2021/04/13 09:08:05;;;;;;;11.48;2.00;;;8.90;99.90;;;;;;5068995;28;20024;-67
2021/04/13 09:11:03;;;;;;;9.20;2.03;;;9.00;99.90;;;;;;5072823;28;20379;-67
2021/04/13 09:13:37;;;;;;;4.13;1.85;;;9.20;99.90;;;;;;5068724;28;20077;-67
2021/04/13 09:16:08;;;;;;;8.18;2.08;;;9.60;99.90;;;;;;5070334;28;20020;-67
2021/04/13 09:18:46;;;;;;;6.10;1.67;;;9.70;99.90;;;;;;5070658;28;20032;-67
2021/04/13 09:21:23;;;;;;;5.80;1.70;;;10.00;99.90;;;;;;5068626;28;20376;-67
2021/04/13 09:24:23;;;;;;;6.63;1.98;;;9.90;99.90;;;;;;5066798;28;20029;-68
2021/04/13 09:26:57;;;;;;;8.15;1.88;;;9.60;99.90;;;;;;5069755;28;20032;-67
2021/04/13 09:29:46;;;;;;;11.68;2.45;;;9.50;99.90;;;;;;5068581;28;20074;-67
2021/04/13 09:32:34;;;;;;;8.30;1.90;;;9.60;99.90;;;;;;5070056;28;20043;-67
2021/04/13 09:35:25;;;;;;;6.20;1.27;;;9.70;99.90;;;;;;5064922;28;20028;-67
2021/04/13 09:38:19;;;;;;;6.97;1.60;;;9.60;99.90;;;;;;5064399;28;20036;-67
2021/04/13 09:40:45;;;;;;;11.82;1.90;;;9.40;99.90;;;;;;5071336;28;20046;-67
2021/04/13 09:43:36;;;;;;;4.22;1.60;;;9.60;99.90;;;;;;5067558;28;20381;-67
2021/04/13 09:46:36;;;;;;;5.10;1.67;;;9.70;99.90;;;;;;5072198;28;20021;-67
2021/04/13 09:49:32;;;;;;;6.75;1.85;;;9.70;99.90;;;;;;5072256;28;20041;-67
2021/04/13 09:52:33;;;;;;;5.40;1.63;;;9.60;99.90;;;;;;5071936;28;20024;-68
2021/04/13 09:55:19;;;;;;;7.38;2.08;;;9.50;99.90;;;;;;5066825;28;20127;-67
2021/04/13 09:58:00;;;;;;;6.63;1.50;;;9.60;99.90;;;;;;5056849;28;20562;-67
2021/04/13 10:01:01;;;;;;;4.63;1.33;;;9.60;99.90;;;;;;5054482;28;20550;-67
2021/04/13 10:03:39;;;;;;;8.27;1.17;;;9.70;99.90;;;;;;5065152;28;20036;-67
2021/04/13 10:06:06;;;;;;;7.40;1.08;;;10.10;99.90;;;;;;5074429;28;20017;-68
2021/04/13 10:08:38;;;;;;;4.10;1.52;;;10.20;99.90;;;;;;5065210;28;20043;-68
2021/04/13 10:11:28;;;;;;;7.03;1.65;;;10.50;99.90;;;;;;5069186;28;20499;-68
2021/04/13 10:14:18;;;;;;;3.00;1.02;;;10.70;99.90;;;;;;5070589;28;20103;-67
2021/04/13 10:17:07;;;;;;;6.22;1.50;;;11.10;99.90;;;;;;5064893;28;20052;-67
2021/04/13 10:20:03;;;;;;;6.07;1.77;;;11.00;99.90;;;;;;5068037;28;20012;-68
2021/04/13 10:23:10;;;;;;;5.72;1.35;;;10.80;99.90;;;;;;5070207;28;20013;-67
2021/04/13 10:26:01;;;;;;;5.50;1.85;;;10.60;99.90;;;;;;5062670;28;20067;-68
2021/04/13 10:28:48;;;;;;;6.93;2.17;;;10.40;99.90;;;;;;5057298;28;20059;-67
2021/04/13 10:31:54;;;;;;;9.60;2.13;;;10.20;99.90;;;;;;5090824;28;20024;-67
2021/04/13 10:34:41;;;;;;;4.60;1.50;;;10.00;99.90;;;;;;5073313;28;20046;-67
2021/04/13 10:37:45;;;;;;;4.78;1.95;;;10.20;99.90;;;;;;5074324;28;20110;-67
2021/04/13 10:40:33;;;;;;;2.22;1.13;;;10.40;99.90;;;;;;5076463;28;20098;-68
2021/04/13 10:43:23;;;;;;;4.05;0.80;;;10.80;99.90;;;;;;5075055;28;20039;-68
2021/04/13 10:46:05;;;;;;;5.90;1.40;;;11.20;99.90;;;;;;5064705;28;20040;-68
2021/04/13 10:48:57;;;;;;;7.57;1.52;;;11.10;99.90;;;;;;5071963;28;20028;-68
2021/04/13 10:51:53;;;;;;;5.68;1.10;;;11.20;99.90;;;;;;5077037;28;20043;-68
2021/04/13 10:54:30;;;;;;;3.65;0.98;;;11.60;99.90;;;;;;5074885;28;20032;-67
2021/04/13 10:56:59;;;;;;;7.50;1.85;;;11.70;99.90;;;;;;5068844;28;20118;-68
2021/04/13 10:59:58;;;;;;;7.45;1.50;;;11.90;99.90;;;;;;5073796;28;20024;-68
2021/04/13 11:03:01;;;;;;;5.72;1.60;;;12.00;99.90;;;;;;5072184;28;20032;-68
2021/04/13 11:05:34;;;;;;;6.72;1.35;;;12.10;99.90;;;;;;5071785;28;20131;-68
2021/04/13 11:08:18;;;;;;;8.67;1.20;;;11.90;99.90;;;;;;5074425;28;20035;-68
2021/04/13 11:10:53;;;;;;;7.65;1.15;;;11.60;99.90;;;;;;5071471;28;20036;-68
2021/04/13 11:13:39;;;;;;;4.63;1.10;;;11.10;98.70;;;;;;5071126;28;20499;-68
2021/04/13 11:16:20;;;;;;;5.40;1.08;;;10.90;99.90;;;;;;5072889;28;20028;-68
2021/04/13 11:19:12;;;;;;;4.35;0.80;;;10.70;99.90;;;;;;5071114;28;20024;-68
2021/04/13 11:22:00;;;;;;;2.30;0.68;;;10.80;99.90;;;;;;5072445;28;20055;-68
2021/04/13 11:24:38;;;;;;;5.78;0.70;;;11.30;98.20;;;;;;5073216;28;20028;-68
2021/04/13 11:27:32;;;;;;;6.68;0.98;;;11.70;98.20;;;;;;5071810;28;20033;-68
2021/04/13 11:30:28;;;;;;;4.47;1.00;;;11.80;97.00;;;;;;5070391;28;20394;-68
2021/04/13 11:33:13;;;;;;;3.45;1.00;;;11.90;98.70;;;;;;5071773;28;20039;-69
2021/04/13 11:35:38;;;;;;;5.28;1.35;;;12.20;96.50;;;;;;5070444;28;20133;-69
2021/04/13 11:38:22;;;;;;;2.47;0.98;;;12.40;96.60;;;;;;5072852;28;20517;-68
2021/04/13 11:41:16;;;;;;;6.80;1.05;;;12.50;96.30;;;;;;5068936;28;20358;-68
2021/04/13 11:44:15;;;;;;;2.70;0.90;;;12.60;97.30;;;;;;5065374;28;20024;-68
2021/04/13 11:46:55;;;;;;;5.53;1.02;;;12.70;93.80;;;;;;5061913;28;20029;-68
2021/04/13 11:49:34;;;;;;;2.95;1.08;;;12.80;91.90;;;;;;5072178;28;20040;-68
2021/04/13 11:52:18;;;;;;;3.53;0.80;;;12.90;92.70;;;;;;5072812;28;20396;-68
2021/04/13 11:54:52;;;;;;;3.03;0.90;;;13.00;93.00;;;;;;5071988;28;20025;-68
2021/04/13 11:57:23;;;;;;;5.85;1.25;;;13.30;94.80;;;;;;5069642;28;20031;-69
2021/04/13 12:00:11;;;;;;;4.55;1.20;;;13.50;94.70;;;;;;5070436;28;20493;-68
2021/04/13 12:02:44;;;;;;;2.28;0.80;;;13.40;96.80;;;;;;5064306;28;20031;-69
2021/04/13 12:05:38;;;;;;;5.43;1.10;;;13.40;96.60;;;;;;5076274;28;20032;-68
2021/04/13 12:08:05;;;;;;;4.03;1.00;;;12.90;96.10;;;;;;5071968;28;20031;-69
2021/04/13 12:10:31;;;;;;;4.15;1.20;;;12.60;97.20;;;;;;5065059;28;20028;-68
2021/04/13 12:12:58;;;;;;;3.45;1.30;;;12.30;97.40;;;;;;5073262;28;20105;-68
2021/04/13 12:15:24;;;;;;;3.85;1.05;;;12.10;97.40;;;;;;5072170;28;20028;-68
2021/04/13 12:17:51;;;;;;;1.48;0.90;;;12.00;96.60;;;;;;5074853;28;20019;-68
2021/04/13 12:20:35;;;;;;;4.35;1.08;;;12.00;98.20;;;;;;5073966;28;20021;-68
2021/04/13 12:23:13;;;;;;;3.08;0.60;;;11.90;95.40;;;;;;5064566;28;20025;-68
2021/04/13 12:25:43;;;;;;;4.75;1.10;;;11.90;95.60;;;;;;5072475;28;20028;-68
2021/04/13 12:28:29;;;;;;;1.88;0.90;;;12.00;96.30;;;;;;5070583;28;20032;-68
2021/04/13 12:31:22;;;;;;;3.38;1.10;;;11.90;93.10;;;;;;5065162;28;20041;-68
2021/04/13 12:33:56;;;;;;;2.55;0.70;;;11.80;91.90;;;;;;5069817;28;20546;-68
2021/04/13 12:36:40;;;;;;;4.55;0.60;;;11.80;92.70;;;;;;5072055;28;20028;-68
2021/04/13 12:39:09;;;;;;;2.15;0.98;;;12.10;95.80;;;;;;5073907;28;20099;-68
2021/04/13 12:41:55;;;;;;;3.50;0.65;;;12.30;90.60;;;;;;5065357;28;20055;-68
2021/04/13 12:44:24;;;;;;;2.20;0.98;;;12.40;92.00;;;;;;5069525;28;20020;-68
2021/04/13 12:46:52;;;;;;;2.25;0.73;;;12.60;90.60;;;;;;5073567;28;20374;-68
2021/04/13 12:49:33;;;;;;;2.03;0.90;;;12.80;90.50;;;;;;5063884;28;20051;-68
2021/04/13 12:52:06;;;;;;;2.40;0.90;;;12.90;91.90;;;;;;5073881;28;20047;-68
2021/04/13 12:54:37;;;;;;;1.85;0.60;;;13.00;91.00;;;;;;5067879;28;20036;-68
2021/04/13 12:57:17;;;;;;;3.33;0.55;;;13.00;83.10;;;;;;5070675;28;20032;-68
2021/04/13 12:59:43;;;;;;;2.00;0.60;;;13.00;81.20;;;;;;5061322;28;20029;-68
2021/04/13 13:02:29;;;;;;;2.60;0.47;;;13.00;78.90;;;;;;5068787;28;20078;-68
2021/04/13 13:04:55;;;;;;;1.08;0.65;;;13.20;80.90;;;;;;5074216;28;20056;-68
2021/04/13 13:07:23;;;;;;;2.17;0.60;;;13.00;81.60;;;;;;5070997;28;20477;-68
2021/04/13 13:09:49;;;;;;;2.53;0.60;;;13.00;79.70;;;;;;5077647;28;20079;-68
2021/04/13 13:12:35;;;;;;;4.28;0.90;;;13.20;76.20;;;;;;5059630;28;20103;-68
2021/04/13 13:15:07;;;;;;;2.88;0.65;;;13.40;78.50;;;;;;5072126;28;20032;-68
2021/04/13 13:17:44;;;;;;;6.53;1.27;;;13.50;81.80;;;;;;5059320;28;20025;-69
2021/04/13 13:20:37;;;;;;;3.33;0.98;;;13.40;84.80;;;;;;5066452;28;20030;-68
2021/04/13 13:23:03;;;;;;;4.40;1.08;;;13.50;86.80;;;;;;5070647;28;20043;-69
2021/04/13 13:25:31;;;;;;;1.88;0.80;;;13.50;85.40;;;;;;5069609;28;20024;-69
2021/04/13 13:28:18;;;;;;;2.92;0.70;;;13.10;87.30;;;;;;5068598;28;20028;-69
2021/04/13 13:30:44;;;;;;;4.28;1.08;;;13.00;89.30;;;;;;5069191;28;20453;-68